sensor_id;sensor_type;location;lat;lon;timestamp;P1;durP1;ratioP1;P2;durP2;ratioP2
10645;SDS011;5371;49.782;9.932;2023-04-24T00:02:03;2.78;;;1.38;;
10645;SDS011;5371;49.782;9.932;2023-04-24T00:04:33;1.75;;;1.20;;
10645;SDS011;5371;49.782;9.932;2023-04-24T00:07:00;2.90;;;1.25;;
10645;SDS011;5371;49.782;9.932;2023-04-24T00:09:28;1.95;;;1.10;;
10645;SDS011;5371;49.782;9.932;2023-04-24T00:11:55;2.55;;;1.30;;
10645;SDS011;5371;49.782;9.932;2023-04-24T00:14:21;2.38;;;1.20;;
10645;SDS011;5371;49.782;9.932;2023-04-24T00:16:48;1.80;;;1.20;;
10645;SDS011;5371;49.782;9.932;2023-04-24T00:19:15;2.97;;;1.10;;
10645;SDS011;5371;49.782;9.932;2023-04-24T00:21:44;2.83;;;1.10;;
10645;SDS011;5371;49.782;9.932;2023-04-24T00:24:11;1.90;;;1.27;;
10645;SDS011;5371;49.782;9.932;2023-04-24T00:26:38;2.65;;;1.30;;
10645;SDS011;5371;49.782;9.932;2023-04-24T00:29:05;1.20;;;1.10;;
10645;SDS011;5371;49.782;9.932;2023-04-24T00:31:32;1.65;;;1.15;;
10645;SDS011;5371;49.782;9.932;2023-04-24T00:34:00;3.05;;;1.30;;
10645;SDS011;5371;49.782;9.932;2023-04-24T00:36:27;2.65;;;1.15;;
10645;SDS011;5371;49.782;9.932;2023-04-24T00:38:55;1.70;;;1.27;;
10645;SDS011;5371;49.782;9.932;2023-04-24T00:41:22;1.85;;;1.10;;
10645;SDS011;5371;49.782;9.932;2023-04-24T00:43:49;1.38;;;1.00;;
10645;SDS011;5371;49.782;9.932;2023-04-24T00:46:16;3.22;;;1.17;;
10645;SDS011;5371;49.782;9.932;2023-04-24T00:48:43;1.38;;;1.05;;
10645;SDS011;5371;49.782;9.932;2023-04-24T00:51:10;1.67;;;1.10;;
10645;SDS011;5371;49.782;9.932;2023-04-24T00:53:37;1.80;;;1.17;;
10645;SDS011;5371;49.782;9.932;2023-04-24T00:56:05;2.20;;;1.10;;
10645;SDS011;5371;49.782;9.932;2023-04-24T00:58:32;2.40;;;1.15;;
10645;SDS011;5371;49.782;9.932;2023-04-24T01:00:59;1.83;;;1.10;;
10645;SDS011;5371;49.782;9.932;2023-04-24T01:03:32;3.10;;;1.20;;
10645;SDS011;5371;49.782;9.932;2023-04-24T01:06:02;2.03;;;1.20;;
10645;SDS011;5371;49.782;9.932;2023-04-24T01:08:30;1.42;;;1.00;;
10645;SDS011;5371;49.782;9.932;2023-04-24T01:10:57;1.38;;;1.00;;
10645;SDS011;5371;49.782;9.932;2023-04-24T01:13:25;1.75;;;1.08;;
10645;SDS011;5371;49.782;9.932;2023-04-24T01:15:53;1.67;;;1.10;;
10645;SDS011;5371;49.782;9.932;2023-04-24T01:18:19;1.48;;;1.08;;
10645;SDS011;5371;49.782;9.932;2023-04-24T01:20:48;1.30;;;1.05;;
10645;SDS011;5371;49.782;9.932;2023-04-24T01:23:18;1.10;;;1.00;;
10645;SDS011;5371;49.782;9.932;2023-04-24T01:25:45;1.23;;;1.00;;
10645;SDS011;5371;49.782;9.932;2023-04-24T01:28:12;2.38;;;1.20;;
10645;SDS011;5371;49.782;9.932;2023-04-24T01:30:39;3.88;;;1.13;;
10645;SDS011;5371;49.782;9.932;2023-04-24T01:33:06;1.90;;;1.10;;
10645;SDS011;5371;49.782;9.932;2023-04-24T01:35:33;2.75;;;1.23;;
10645;SDS011;5371;49.782;9.932;2023-04-24T01:38:01;2.05;;;0.98;;
10645;SDS011;5371;49.782;9.932;2023-04-24T01:40:29;2.25;;;1.00;;
10645;SDS011;5371;49.782;9.932;2023-04-24T01:42:57;3.83;;;1.25;;
10645;SDS011;5371;49.782;9.932;2023-04-24T01:45:24;1.27;;;1.00;;
10645;SDS011;5371;49.782;9.932;2023-04-24T01:47:51;1.10;;;1.00;;
10645;SDS011;5371;49.782;9.932;2023-04-24T01:50:18;2.97;;;1.10;;
10645;SDS011;5371;49.782;9.932;2023-04-24T01:52:45;1.10;;;1.00;;
10645;SDS011;5371;49.782;9.932;2023-04-24T01:55:12;1.25;;;1.02;;
10645;SDS011;5371;49.782;9.932;2023-04-24T01:57:40;1.60;;;1.00;;
10645;SDS011;5371;49.782;9.932;2023-04-24T02:00:07;2.45;;;1.10;;
10645;SDS011;5371;49.782;9.932;2023-04-24T02:02:40;1.80;;;1.10;;
10645;SDS011;5371;49.782;9.932;2023-04-24T02:05:08;1.25;;;0.93;;
10645;SDS011;5371;49.782;9.932;2023-04-24T02:07:37;2.28;;;1.08;;
10645;SDS011;5371;49.782;9.932;2023-04-24T02:10:05;2.75;;;1.10;;
10645;SDS011;5371;49.782;9.932;2023-04-24T02:12:33;1.55;;;1.10;;
10645;SDS011;5371;49.782;9.932;2023-04-24T02:15:01;4.72;;;1.30;;
10645;SDS011;5371;49.782;9.932;2023-04-24T02:17:29;1.80;;;1.10;;
10645;SDS011;5371;49.782;9.932;2023-04-24T02:19:56;2.13;;;1.10;;
10645;SDS011;5371;49.782;9.932;2023-04-24T02:22:23;2.10;;;1.00;;
10645;SDS011;5371;49.782;9.932;2023-04-24T02:24:50;4.22;;;1.30;;
10645;SDS011;5371;49.782;9.932;2023-04-24T02:27:17;2.05;;;1.10;;
10645;SDS011;5371;49.782;9.932;2023-04-24T02:29:44;1.55;;;1.08;;
10645;SDS011;5371;49.782;9.932;2023-04-24T02:32:12;3.20;;;1.10;;
10645;SDS011;5371;49.782;9.932;2023-04-24T02:34:42;2.78;;;1.20;;
10645;SDS011;5371;49.782;9.932;2023-04-24T02:37:09;2.08;;;0.90;;
10645;SDS011;5371;49.782;9.932;2023-04-24T02:39:36;2.22;;;1.10;;
10645;SDS011;5371;49.782;9.932;2023-04-24T02:42:03;1.88;;;1.00;;
10645;SDS011;5371;49.782;9.932;2023-04-24T02:44:30;2.50;;;1.00;;
10645;SDS011;5371;49.782;9.932;2023-04-24T02:46:57;1.23;;;1.13;;
10645;SDS011;5371;49.782;9.932;2023-04-24T02:49:25;1.20;;;1.00;;
10645;SDS011;5371;49.782;9.932;2023-04-24T02:51:53;1.58;;;1.00;;
10645;SDS011;5371;49.782;9.932;2023-04-24T02:54:20;2.47;;;1.23;;
10645;SDS011;5371;49.782;9.932;2023-04-24T02:56:47;1.80;;;1.00;;
10645;SDS011;5371;49.782;9.932;2023-04-24T02:59:14;3.17;;;1.20;;
10645;SDS011;5371;49.782;9.932;2023-04-24T03:01:41;3.85;;;1.20;;
10645;SDS011;5371;49.782;9.932;2023-04-24T03:04:08;4.03;;;1.00;;
10645;SDS011;5371;49.782;9.932;2023-04-24T03:06:37;1.73;;;1.20;;
10645;SDS011;5371;49.782;9.932;2023-04-24T03:09:04;1.88;;;0.93;;
10645;SDS011;5371;49.782;9.932;2023-04-24T03:11:31;2.10;;;1.00;;
10645;SDS011;5371;49.782;9.932;2023-04-24T03:13:58;1.55;;;1.05;;
10645;SDS011;5371;49.782;9.932;2023-04-24T03:16:24;1.75;;;0.90;;
10645;SDS011;5371;49.782;9.932;2023-04-24T03:18:54;2.13;;;1.10;;
10645;SDS011;5371;49.782;9.932;2023-04-24T03:21:23;1.45;;;1.00;;
10645;SDS011;5371;49.782;9.932;2023-04-24T03:23:54;1.67;;;1.10;;
10645;SDS011;5371;49.782;9.932;2023-04-24T03:26:22;2.33;;;1.20;;
10645;SDS011;5371;49.782;9.932;2023-04-24T03:29:04;2.75;;;1.20;;
10645;SDS011;5371;49.782;9.932;2023-04-24T03:31:31;1.92;;;1.17;;
10645;SDS011;5371;49.782;9.932;2023-04-24T03:33:58;1.45;;;1.00;;
10645;SDS011;5371;49.782;9.932;2023-04-24T03:36:25;2.53;;;1.30;;
10645;SDS011;5371;49.782;9.932;2023-04-24T03:38:55;3.00;;;1.10;;
10645;SDS011;5371;49.782;9.932;2023-04-24T03:41:25;1.40;;;1.00;;
10645;SDS011;5371;49.782;9.932;2023-04-24T03:43:57;2.78;;;1.27;;
10645;SDS011;5371;49.782;9.932;2023-04-24T03:46:24;4.07;;;1.20;;
10645;SDS011;5371;49.782;9.932;2023-04-24T03:48:56;2.50;;;1.23;;
10645;SDS011;5371;49.782;9.932;2023-04-24T03:51:27;2.60;;;1.20;;
10645;SDS011;5371;49.782;9.932;2023-04-24T03:54:03;2.65;;;1.42;;
10645;SDS011;5371;49.782;9.932;2023-04-24T03:56:33;3.03;;;1.17;;
10645;SDS011;5371;49.782;9.932;2023-04-24T03:59:00;1.48;;;1.13;;
10645;SDS011;5371;49.782;9.932;2023-04-24T04:01:28;3.03;;;1.20;;
10645;SDS011;5371;49.782;9.932;2023-04-24T04:04:04;2.83;;;1.42;;
10645;SDS011;5371;49.782;9.932;2023-04-24T04:06:31;1.67;;;1.10;;
10645;SDS011;5371;49.782;9.932;2023-04-24T04:08:59;2.13;;;1.23;;
10645;SDS011;5371;49.782;9.932;2023-04-24T04:11:28;2.33;;;1.02;;
10645;SDS011;5371;49.782;9.932;2023-04-24T04:13:55;2.63;;;1.33;;
10645;SDS011;5371;49.782;9.932;2023-04-24T04:16:22;3.25;;;1.33;;
10645;SDS011;5371;49.782;9.932;2023-04-24T04:18:54;2.53;;;1.40;;
10645;SDS011;5371;49.782;9.932;2023-04-24T04:21:21;3.78;;;1.58;;
10645;SDS011;5371;49.782;9.932;2023-04-24T04:23:52;3.38;;;1.50;;
10645;SDS011;5371;49.782;9.932;2023-04-24T04:26:25;5.90;;;1.90;;
10645;SDS011;5371;49.782;9.932;2023-04-24T04:29:08;2.90;;;1.95;;
10645;SDS011;5371;49.782;9.932;2023-04-24T04:31:40;4.25;;;2.47;;
10645;SDS011;5371;49.782;9.932;2023-04-24T04:34:10;5.15;;;2.20;;
10645;SDS011;5371;49.782;9.932;2023-04-24T04:36:38;3.08;;;2.10;;
10645;SDS011;5371;49.782;9.932;2023-04-24T04:39:19;3.90;;;1.83;;
10645;SDS011;5371;49.782;9.932;2023-04-24T04:41:58;2.00;;;1.43;;
10645;SDS011;5371;49.782;9.932;2023-04-24T04:44:33;2.58;;;1.30;;
10645;SDS011;5371;49.782;9.932;2023-04-24T04:47:01;3.00;;;1.52;;
10645;SDS011;5371;49.782;9.932;2023-04-24T04:49:32;3.00;;;1.40;;
10645;SDS011;5371;49.782;9.932;2023-04-24T04:52:00;3.50;;;1.65;;
10645;SDS011;5371;49.782;9.932;2023-04-24T04:54:28;4.78;;;1.50;;
10645;SDS011;5371;49.782;9.932;2023-04-24T04:56:56;2.35;;;1.50;;
10645;SDS011;5371;49.782;9.932;2023-04-24T04:59:23;1.75;;;1.00;;
10645;SDS011;5371;49.782;9.932;2023-04-24T05:01:58;2.47;;;1.17;;
10645;SDS011;5371;49.782;9.932;2023-04-24T05:04:25;2.35;;;1.10;;
10645;SDS011;5371;49.782;9.932;2023-04-24T05:06:52;3.63;;;1.40;;
10645;SDS011;5371;49.782;9.932;2023-04-24T05:09:22;2.97;;;1.40;;
10645;SDS011;5371;49.782;9.932;2023-04-24T05:11:55;3.35;;;1.38;;
10645;SDS011;5371;49.782;9.932;2023-04-24T05:14:23;3.78;;;1.70;;
10645;SDS011;5371;49.782;9.932;2023-04-24T05:16:52;3.25;;;1.33;;
10645;SDS011;5371;49.782;9.932;2023-04-24T05:19:23;3.22;;;1.30;;
10645;SDS011;5371;49.782;9.932;2023-04-24T05:21:50;1.98;;;1.42;;
10645;SDS011;5371;49.782;9.932;2023-04-24T05:24:17;2.08;;;1.25;;
10645;SDS011;5371;49.782;9.932;2023-04-24T05:26:44;2.75;;;1.30;;
10645;SDS011;5371;49.782;9.932;2023-04-24T05:29:13;1.73;;;1.38;;
10645;SDS011;5371;49.782;9.932;2023-04-24T05:31:41;3.65;;;1.30;;
10645;SDS011;5371;49.782;9.932;2023-04-24T05:34:08;1.60;;;1.40;;
10645;SDS011;5371;49.782;9.932;2023-04-24T05:36:41;2.67;;;1.60;;
10645;SDS011;5371;49.782;9.932;2023-04-24T05:39:08;1.88;;;1.40;;
10645;SDS011;5371;49.782;9.932;2023-04-24T05:41:35;5.20;;;1.63;;
10645;SDS011;5371;49.782;9.932;2023-04-24T05:44:02;2.00;;;1.50;;
10645;SDS011;5371;49.782;9.932;2023-04-24T05:46:29;3.63;;;1.70;;
10645;SDS011;5371;49.782;9.932;2023-04-24T05:48:56;1.83;;;1.40;;
10645;SDS011;5371;49.782;9.932;2023-04-24T05:51:23;1.40;;;1.30;;
10645;SDS011;5371;49.782;9.932;2023-04-24T05:53:52;2.08;;;1.40;;
10645;SDS011;5371;49.782;9.932;2023-04-24T05:56:20;1.42;;;1.30;;
10645;SDS011;5371;49.782;9.932;2023-04-24T05:58:48;3.60;;;1.50;;
10645;SDS011;5371;49.782;9.932;2023-04-24T06:01:15;3.38;;;1.40;;
10645;SDS011;5371;49.782;9.932;2023-04-24T06:03:48;2.25;;;1.40;;
10645;SDS011;5371;49.782;9.932;2023-04-24T06:06:15;1.88;;;1.30;;
10645;SDS011;5371;49.782;9.932;2023-04-24T06:08:42;2.55;;;1.30;;
10645;SDS011;5371;49.782;9.932;2023-04-24T06:11:11;2.05;;;1.38;;
10645;SDS011;5371;49.782;9.932;2023-04-24T06:13:38;2.17;;;1.58;;
10645;SDS011;5371;49.782;9.932;2023-04-24T06:16:39;2.28;;;1.33;;
10645;SDS011;5371;49.782;9.932;2023-04-24T06:19:24;2.15;;;1.40;;
10645;SDS011;5371;49.782;9.932;2023-04-24T06:21:51;3.88;;;1.60;;
10645;SDS011;5371;49.782;9.932;2023-04-24T06:24:18;2.92;;;1.40;;
10645;SDS011;5371;49.782;9.932;2023-04-24T06:26:47;1.53;;;1.30;;
10645;SDS011;5371;49.782;9.932;2023-04-24T06:29:14;2.00;;;1.30;;
10645;SDS011;5371;49.782;9.932;2023-04-24T06:31:41;2.55;;;1.40;;
10645;SDS011;5371;49.782;9.932;2023-04-24T06:34:09;1.95;;;1.50;;
10645;SDS011;5371;49.782;9.932;2023-04-24T06:36:36;2.65;;;1.52;;
10645;SDS011;5371;49.782;9.932;2023-04-24T06:39:04;1.92;;;1.60;;
10645;SDS011;5371;49.782;9.932;2023-04-24T06:41:31;1.58;;;1.40;;
10645;SDS011;5371;49.782;9.932;2023-04-24T06:43:59;1.80;;;1.40;;
10645;SDS011;5371;49.782;9.932;2023-04-24T06:46:26;2.00;;;1.40;;
10645;SDS011;5371;49.782;9.932;2023-04-24T06:48:53;1.77;;;1.67;;
10645;SDS011;5371;49.782;9.932;2023-04-24T06:51:22;1.80;;;1.60;;
10645;SDS011;5371;49.782;9.932;2023-04-24T06:53:49;2.03;;;1.55;;
10645;SDS011;5371;49.782;9.932;2023-04-24T06:56:16;2.50;;;1.52;;
10645;SDS011;5371;49.782;9.932;2023-04-24T06:58:43;2.20;;;1.80;;
10645;SDS011;5371;49.782;9.932;2023-04-24T07:01:12;3.40;;;1.45;;
10645;SDS011;5371;49.782;9.932;2023-04-24T07:03:39;1.95;;;1.58;;
10645;SDS011;5371;49.782;9.932;2023-04-24T07:06:06;2.45;;;1.80;;
10645;SDS011;5371;49.782;9.932;2023-04-24T07:08:33;3.35;;;1.92;;
10645;SDS011;5371;49.782;9.932;2023-04-24T07:11:01;3.05;;;1.80;;
10645;SDS011;5371;49.782;9.932;2023-04-24T07:13:28;3.55;;;1.63;;
10645;SDS011;5371;49.782;9.932;2023-04-24T07:15:55;2.17;;;1.85;;
10645;SDS011;5371;49.782;9.932;2023-04-24T07:18:23;2.15;;;1.80;;
10645;SDS011;5371;49.782;9.932;2023-04-24T07:20:50;3.15;;;1.73;;
10645;SDS011;5371;49.782;9.932;2023-04-24T07:23:19;4.03;;;1.40;;
10645;SDS011;5371;49.782;9.932;2023-04-24T07:25:46;4.38;;;1.60;;
10645;SDS011;5371;49.782;9.932;2023-04-24T07:28:13;2.35;;;1.73;;
10645;SDS011;5371;49.782;9.932;2023-04-24T07:30:42;1.80;;;1.67;;
10645;SDS011;5371;49.782;9.932;2023-04-24T07:33:09;1.90;;;1.70;;
10645;SDS011;5371;49.782;9.932;2023-04-24T07:35:42;3.05;;;1.83;;
10645;SDS011;5371;49.782;9.932;2023-04-24T07:38:10;1.88;;;1.60;;
10645;SDS011;5371;49.782;9.932;2023-04-24T07:40:38;2.25;;;1.80;;
10645;SDS011;5371;49.782;9.932;2023-04-24T07:43:05;4.22;;;1.98;;
10645;SDS011;5371;49.782;9.932;2023-04-24T07:45:33;3.67;;;2.05;;
10645;SDS011;5371;49.782;9.932;2023-04-24T07:48:02;3.83;;;1.92;;
10645;SDS011;5371;49.782;9.932;2023-04-24T07:50:29;2.95;;;1.85;;
10645;SDS011;5371;49.782;9.932;2023-04-24T07:53:00;2.70;;;1.90;;
10645;SDS011;5371;49.782;9.932;2023-04-24T07:55:27;2.92;;;2.03;;
10645;SDS011;5371;49.782;9.932;2023-04-24T07:57:55;2.83;;;1.98;;
10645;SDS011;5371;49.782;9.932;2023-04-24T08:00:23;2.67;;;2.25;;
10645;SDS011;5371;49.782;9.932;2023-04-24T08:02:50;2.25;;;1.80;;
10645;SDS011;5371;49.782;9.932;2023-04-24T08:05:17;2.53;;;1.90;;
10645;SDS011;5371;49.782;9.932;2023-04-24T08:07:45;3.38;;;2.03;;
10645;SDS011;5371;49.782;9.932;2023-04-24T08:10:15;4.15;;;2.13;;
10645;SDS011;5371;49.782;9.932;2023-04-24T08:12:42;3.30;;;1.95;;
10645;SDS011;5371;49.782;9.932;2023-04-24T08:15:09;2.70;;;2.15;;
10645;SDS011;5371;49.782;9.932;2023-04-24T08:17:36;3.75;;;2.25;;
10645;SDS011;5371;49.782;9.932;2023-04-24T08:20:04;3.78;;;2.28;;
10645;SDS011;5371;49.782;9.932;2023-04-24T08:22:35;7.28;;;2.47;;
10645;SDS011;5371;49.782;9.932;2023-04-24T08:25:02;4.10;;;2.10;;
10645;SDS011;5371;49.782;9.932;2023-04-24T08:27:32;3.15;;;2.00;;
10645;SDS011;5371;49.782;9.932;2023-04-24T08:29:59;4.65;;;2.30;;
10645;SDS011;5371;49.782;9.932;2023-04-24T08:32:26;2.58;;;2.13;;
10645;SDS011;5371;49.782;9.932;2023-04-24T08:34:54;2.22;;;1.98;;
10645;SDS011;5371;49.782;9.932;2023-04-24T08:37:21;5.63;;;2.08;;
10645;SDS011;5371;49.782;9.932;2023-04-24T08:39:49;5.25;;;2.20;;
10645;SDS011;5371;49.782;9.932;2023-04-24T08:42:16;2.97;;;2.13;;
10645;SDS011;5371;49.782;9.932;2023-04-24T08:44:45;2.17;;;1.98;;
10645;SDS011;5371;49.782;9.932;2023-04-24T08:47:12;2.40;;;2.20;;
10645;SDS011;5371;49.782;9.932;2023-04-24T08:49:39;2.40;;;1.90;;
10645;SDS011;5371;49.782;9.932;2023-04-24T08:52:06;3.90;;;2.00;;
10645;SDS011;5371;49.782;9.932;2023-04-24T08:54:33;2.88;;;1.90;;
10645;SDS011;5371;49.782;9.932;2023-04-24T08:57:02;2.03;;;1.85;;
10645;SDS011;5371;49.782;9.932;2023-04-24T08:59:30;3.83;;;1.98;;
10645;SDS011;5371;49.782;9.932;2023-04-24T09:01:59;2.03;;;1.55;;
10645;SDS011;5371;49.782;9.932;2023-04-24T09:04:26;2.13;;;1.83;;
10645;SDS011;5371;49.782;9.932;2023-04-24T09:06:55;1.40;;;1.30;;
10645;SDS011;5371;49.782;9.932;2023-04-24T09:09:23;1.35;;;1.25;;
10645;SDS011;5371;49.782;9.932;2023-04-24T09:11:51;1.50;;;1.20;;
10645;SDS011;5371;49.782;9.932;2023-04-24T09:14:20;1.75;;;1.27;;
10645;SDS011;5371;49.782;9.932;2023-04-24T09:16:48;1.60;;;1.20;;
10645;SDS011;5371;49.782;9.932;2023-04-24T09:19:17;2.40;;;1.30;;
10645;SDS011;5371;49.782;9.932;2023-04-24T09:21:45;2.10;;;1.10;;
10645;SDS011;5371;49.782;9.932;2023-04-24T09:24:16;3.70;;;1.20;;
10645;SDS011;5371;49.782;9.932;2023-04-24T09:26:45;1.70;;;1.20;;
10645;SDS011;5371;49.782;9.932;2023-04-24T09:29:14;4.25;;;1.35;;
10645;SDS011;5371;49.782;9.932;2023-04-24T09:31:42;2.35;;;1.25;;
10645;SDS011;5371;49.782;9.932;2023-04-24T09:34:09;1.27;;;1.15;;
10645;SDS011;5371;49.782;9.932;2023-04-24T09:36:39;2.17;;;1.30;;
10645;SDS011;5371;49.782;9.932;2023-04-24T09:39:07;2.63;;;1.50;;
10645;SDS011;5371;49.782;9.932;2023-04-24T09:41:41;3.50;;;1.25;;
10645;SDS011;5371;49.782;9.932;2023-04-24T09:44:11;3.15;;;1.10;;
10645;SDS011;5371;49.782;9.932;2023-04-24T09:46:40;1.95;;;1.30;;
10645;SDS011;5371;49.782;9.932;2023-04-24T09:49:08;1.27;;;1.13;;
10645;SDS011;5371;49.782;9.932;2023-04-24T09:51:36;2.28;;;1.30;;
10645;SDS011;5371;49.782;9.932;2023-04-24T09:54:11;2.00;;;1.38;;
10645;SDS011;5371;49.782;9.932;2023-04-24T09:56:41;1.48;;;1.38;;
10645;SDS011;5371;49.782;9.932;2023-04-24T09:59:08;1.40;;;1.30;;
10645;SDS011;5371;49.782;9.932;2023-04-24T10:01:36;2.80;;;1.48;;
10645;SDS011;5371;49.782;9.932;2023-04-24T10:04:03;3.58;;;1.60;;
10645;SDS011;5371;49.782;9.932;2023-04-24T10:06:34;1.73;;;1.40;;
10645;SDS011;5371;49.782;9.932;2023-04-24T10:09:02;1.73;;;1.63;;
10645;SDS011;5371;49.782;9.932;2023-04-24T10:11:30;1.80;;;1.70;;
10645;SDS011;5371;49.782;9.932;2023-04-24T10:13:57;2.38;;;1.77;;
10645;SDS011;5371;49.782;9.932;2023-04-24T10:16:24;1.70;;;1.60;;
10645;SDS011;5371;49.782;9.932;2023-04-24T10:18:54;3.75;;;1.73;;
10645;SDS011;5371;49.782;9.932;2023-04-24T10:21:21;1.95;;;1.75;;
10645;SDS011;5371;49.782;9.932;2023-04-24T10:23:48;3.10;;;1.80;;
10645;SDS011;5371;49.782;9.932;2023-04-24T10:26:17;1.88;;;1.67;;
10645;SDS011;5371;49.782;9.932;2023-04-24T10:28:45;2.22;;;1.73;;
10645;SDS011;5371;49.782;9.932;2023-04-24T10:31:13;2.15;;;1.95;;
10645;SDS011;5371;49.782;9.932;2023-04-24T10:33:40;2.72;;;1.83;;
10645;SDS011;5371;49.782;9.932;2023-04-24T10:36:07;2.28;;;1.67;;
10645;SDS011;5371;49.782;9.932;2023-04-24T10:38:35;2.40;;;1.70;;
10645;SDS011;5371;49.782;9.932;2023-04-24T10:41:07;2.72;;;1.90;;
10645;SDS011;5371;49.782;9.932;2023-04-24T10:43:37;3.47;;;1.80;;
10645;SDS011;5371;49.782;9.932;2023-04-24T10:46:06;3.20;;;1.95;;
10645;SDS011;5371;49.782;9.932;2023-04-24T10:48:33;2.05;;;1.85;;
10645;SDS011;5371;49.782;9.932;2023-04-24T10:51:01;2.70;;;2.00;;
10645;SDS011;5371;49.782;9.932;2023-04-24T10:53:28;3.22;;;2.05;;
10645;SDS011;5371;49.782;9.932;2023-04-24T10:56:02;3.72;;;2.22;;
10645;SDS011;5371;49.782;9.932;2023-04-24T10:58:39;2.80;;;1.80;;
10645;SDS011;5371;49.782;9.932;2023-04-24T11:01:23;2.30;;;1.67;;
10645;SDS011;5371;49.782;9.932;2023-04-24T11:03:50;2.20;;;1.90;;
10645;SDS011;5371;49.782;9.932;2023-04-24T11:06:27;2.53;;;2.25;;
10645;SDS011;5371;49.782;9.932;2023-04-24T11:08:59;3.67;;;1.83;;
10645;SDS011;5371;49.782;9.932;2023-04-24T11:11:29;2.45;;;2.03;;
10645;SDS011;5371;49.782;9.932;2023-04-24T11:14:08;2.97;;;2.10;;
10645;SDS011;5371;49.782;9.932;2023-04-24T11:16:36;3.38;;;2.05;;
10645;SDS011;5371;49.782;9.932;2023-04-24T11:19:06;3.70;;;2.65;;
10645;SDS011;5371;49.782;9.932;2023-04-24T11:21:40;3.85;;;2.70;;
10645;SDS011;5371;49.782;9.932;2023-04-24T11:24:28;7.03;;;2.45;;
10645;SDS011;5371;49.782;9.932;2023-04-24T11:26:56;11.63;;;4.15;;
10645;SDS011;5371;49.782;9.932;2023-04-24T11:29:39;2.60;;;2.22;;
10645;SDS011;5371;49.782;9.932;2023-04-24T11:32:14;4.20;;;2.80;;
10645;SDS011;5371;49.782;9.932;2023-04-24T11:34:45;3.08;;;2.20;;
10645;SDS011;5371;49.782;9.932;2023-04-24T11:37:12;3.28;;;2.20;;
10645;SDS011;5371;49.782;9.932;2023-04-24T11:39:40;6.85;;;2.60;;
10645;SDS011;5371;49.782;9.932;2023-04-24T11:42:07;4.55;;;2.28;;
10645;SDS011;5371;49.782;9.932;2023-04-24T11:44:34;2.80;;;2.10;;
10645;SDS011;5371;49.782;9.932;2023-04-24T11:47:04;4.35;;;2.78;;
10645;SDS011;5371;49.782;9.932;2023-04-24T11:49:32;4.82;;;2.25;;
10645;SDS011;5371;49.782;9.932;2023-04-24T11:51:59;4.60;;;2.38;;
10645;SDS011;5371;49.782;9.932;2023-04-24T11:54:27;3.05;;;2.00;;
10645;SDS011;5371;49.782;9.932;2023-04-24T11:56:55;2.25;;;1.77;;
10645;SDS011;5371;49.782;9.932;2023-04-24T11:59:22;2.10;;;1.90;;
10645;SDS011;5371;49.782;9.932;2023-04-24T12:01:49;3.35;;;1.60;;
10645;SDS011;5371;49.782;9.932;2023-04-24T12:04:18;2.67;;;1.67;;
10645;SDS011;5371;49.782;9.932;2023-04-24T12:07:00;4.88;;;1.80;;
10645;SDS011;5371;49.782;9.932;2023-04-24T12:09:28;3.22;;;1.85;;
10645;SDS011;5371;49.782;9.932;2023-04-24T12:11:55;1.73;;;1.60;;
10645;SDS011;5371;49.782;9.932;2023-04-24T12:14:23;3.45;;;1.88;;
10645;SDS011;5371;49.782;9.932;2023-04-24T12:16:50;1.60;;;1.42;;
10645;SDS011;5371;49.782;9.932;2023-04-24T12:19:20;2.88;;;1.77;;
10645;SDS011;5371;49.782;9.932;2023-04-24T12:21:58;1.92;;;1.50;;
10645;SDS011;5371;49.782;9.932;2023-04-24T12:24:26;2.25;;;1.65;;
10645;SDS011;5371;49.782;9.932;2023-04-24T12:26:53;3.28;;;1.42;;
10645;SDS011;5371;49.782;9.932;2023-04-24T12:29:20;1.55;;;1.42;;
10645;SDS011;5371;49.782;9.932;2023-04-24T12:31:47;2.25;;;1.40;;
10645;SDS011;5371;49.782;9.932;2023-04-24T12:34:18;3.00;;;1.48;;
10645;SDS011;5371;49.782;9.932;2023-04-24T12:36:47;2.33;;;1.30;;
10645;SDS011;5371;49.782;9.932;2023-04-24T12:39:14;1.45;;;1.35;;
10645;SDS011;5371;49.782;9.932;2023-04-24T12:41:50;1.80;;;1.48;;
10645;SDS011;5371;49.782;9.932;2023-04-24T12:44:18;2.38;;;1.42;;
10645;SDS011;5371;49.782;9.932;2023-04-24T12:46:45;1.50;;;1.40;;
10645;SDS011;5371;49.782;9.932;2023-04-24T12:49:12;3.15;;;1.50;;
10645;SDS011;5371;49.782;9.932;2023-04-24T12:51:40;1.83;;;1.50;;
10645;SDS011;5371;49.782;9.932;2023-04-24T12:54:07;1.75;;;1.40;;
10645;SDS011;5371;49.782;9.932;2023-04-24T12:56:34;1.63;;;1.35;;
10645;SDS011;5371;49.782;9.932;2023-04-24T12:59:04;1.85;;;1.60;;
10645;SDS011;5371;49.782;9.932;2023-04-24T13:01:31;2.58;;;1.65;;
10645;SDS011;5371;49.782;9.932;2023-04-24T13:03:58;1.92;;;1.40;;
10645;SDS011;5371;49.782;9.932;2023-04-24T13:06:25;2.88;;;1.50;;
10645;SDS011;5371;49.782;9.932;2023-04-24T13:08:54;4.13;;;1.60;;
10645;SDS011;5371;49.782;9.932;2023-04-24T13:11:23;3.65;;;1.70;;
10645;SDS011;5371;49.782;9.932;2023-04-24T13:13:50;1.90;;;1.42;;
10645;SDS011;5371;49.782;9.932;2023-04-24T13:16:17;2.10;;;1.90;;
10645;SDS011;5371;49.782;9.932;2023-04-24T13:18:44;2.17;;;1.98;;
10645;SDS011;5371;49.782;9.932;2023-04-24T13:21:11;3.00;;;1.90;;
10645;SDS011;5371;49.782;9.932;2023-04-24T13:23:38;1.50;;;1.40;;
10645;SDS011;5371;49.782;9.932;2023-04-24T13:26:07;1.95;;;1.77;;
10645;SDS011;5371;49.782;9.932;2023-04-24T13:28:34;2.30;;;1.83;;
10645;SDS011;5371;49.782;9.932;2023-04-24T13:31:01;2.72;;;1.80;;
10645;SDS011;5371;49.782;9.932;2023-04-24T13:33:28;1.90;;;1.80;;
10645;SDS011;5371;49.782;9.932;2023-04-24T13:35:55;3.08;;;1.90;;
10645;SDS011;5371;49.782;9.932;2023-04-24T13:38:22;2.10;;;1.90;;
10645;SDS011;5371;49.782;9.932;2023-04-24T13:40:49;2.30;;;1.85;;
10645;SDS011;5371;49.782;9.932;2023-04-24T13:43:18;2.03;;;1.83;;
10645;SDS011;5371;49.782;9.932;2023-04-24T13:45:44;2.40;;;2.20;;
10645;SDS011;5371;49.782;9.932;2023-04-24T13:48:11;6.88;;;2.30;;
10645;SDS011;5371;49.782;9.932;2023-04-24T13:50:40;3.45;;;2.22;;
10645;SDS011;5371;49.782;9.932;2023-04-24T13:53:07;2.28;;;2.08;;
10645;SDS011;5371;49.782;9.932;2023-04-24T13:55:34;2.50;;;2.15;;
10645;SDS011;5371;49.782;9.932;2023-04-24T13:58:01;3.35;;;2.30;;
10645;SDS011;5371;49.782;9.932;2023-04-24T14:00:30;3.22;;;2.28;;
10645;SDS011;5371;49.782;9.932;2023-04-24T14:02:58;4.30;;;2.50;;
10645;SDS011;5371;49.782;9.932;2023-04-24T14:05:25;3.75;;;2.25;;
10645;SDS011;5371;49.782;9.932;2023-04-24T14:07:52;3.08;;;1.83;;
10645;SDS011;5371;49.782;9.932;2023-04-24T14:10:19;2.10;;;1.90;;
10645;SDS011;5371;49.782;9.932;2023-04-24T14:12:46;2.13;;;1.60;;
10645;SDS011;5371;49.782;9.932;2023-04-24T14:15:13;2.70;;;1.80;;
10645;SDS011;5371;49.782;9.932;2023-04-24T14:17:41;2.38;;;2.08;;
10645;SDS011;5371;49.782;9.932;2023-04-24T14:20:08;3.30;;;2.20;;
10645;SDS011;5371;49.782;9.932;2023-04-24T14:22:36;5.90;;;2.70;;
10645;SDS011;5371;49.782;9.932;2023-04-24T14:25:03;3.05;;;2.33;;
10645;SDS011;5371;49.782;9.932;2023-04-24T14:27:31;3.53;;;2.78;;
10645;SDS011;5371;49.782;9.932;2023-04-24T14:29:59;3.33;;;2.70;;
10645;SDS011;5371;49.782;9.932;2023-04-24T14:32:26;2.92;;;2.63;;
10645;SDS011;5371;49.782;9.932;2023-04-24T14:34:55;2.60;;;2.40;;
10645;SDS011;5371;49.782;9.932;2023-04-24T14:37:22;3.28;;;2.55;;
10645;SDS011;5371;49.782;9.932;2023-04-24T14:39:49;3.30;;;2.42;;
10645;SDS011;5371;49.782;9.932;2023-04-24T14:42:16;3.50;;;2.70;;
10645;SDS011;5371;49.782;9.932;2023-04-24T14:44:43;3.38;;;2.90;;
10645;SDS011;5371;49.782;9.932;2023-04-24T14:47:10;4.40;;;3.10;;
10645;SDS011;5371;49.782;9.932;2023-04-24T14:49:37;4.25;;;3.28;;
10645;SDS011;5371;49.782;9.932;2023-04-24T14:52:06;4.57;;;2.90;;
10645;SDS011;5371;49.782;9.932;2023-04-24T14:54:33;4.63;;;2.72;;
10645;SDS011;5371;49.782;9.932;2023-04-24T14:57:00;3.33;;;2.95;;
10645;SDS011;5371;49.782;9.932;2023-04-24T14:59:27;3.97;;;2.63;;
10645;SDS011;5371;49.782;9.932;2023-04-24T15:01:54;2.72;;;2.28;;
10645;SDS011;5371;49.782;9.932;2023-04-24T15:04:23;3.88;;;2.50;;
10645;SDS011;5371;49.782;9.932;2023-04-24T15:06:50;4.88;;;2.10;;
10645;SDS011;5371;49.782;9.932;2023-04-24T15:09:20;3.13;;;2.17;;